createdAt,value
2023-02-16T00:01:52.185Z,25.13
2023-02-16T00:04:24.651Z,30.50
2023-02-16T00:06:52.864Z,35.80
2023-02-16T00:09:21.006Z,31.23
2023-02-16T00:12:27.770Z,29.07
2023-02-16T00:14:54.430Z,25.00
2023-02-16T00:17:21.005Z,22.42
2023-02-16T00:19:47.673Z,24.48
2023-02-16T00:22:14.239Z,27.15
2023-02-16T00:24:40.898Z,28.53
2023-02-16T00:27:15.331Z,25.75
2023-02-16T00:29:44.698Z,27.52
2023-02-16T00:32:12.899Z,28.40
2023-02-16T00:34:43.167Z,27.95
2023-02-16T00:37:12.467Z,29.00
2023-02-16T00:39:41.333Z,25.52
2023-02-16T00:42:29.898Z,25.85
2023-02-16T00:44:57.947Z,27.52
2023-02-16T00:47:38.110Z,22.17
2023-02-16T00:50:17.760Z,27.20
2023-02-16T00:52:46.938Z,33.97
2023-02-16T00:55:20.052Z,30.40
2023-02-16T00:57:56.327Z,23.92
2023-02-16T01:00:27.323Z,30.58
2023-02-16T01:02:57.484Z,21.73
2023-02-16T01:05:24.878Z,21.60
2023-02-16T01:08:10.349Z,27.48
2023-02-16T01:11:10.846Z,26.92
2023-02-16T01:13:47.381Z,24.48
2023-02-16T01:16:38.746Z,30.37
2023-02-16T01:19:05.879Z,24.52
2023-02-16T01:21:32.836Z,26.17
2023-02-16T01:24:01.405Z,22.50
2023-02-16T01:26:28.994Z,28.65
2023-02-16T01:28:55.604Z,25.93
2023-02-16T01:31:22.358Z,26.13
2023-02-16T01:33:51.646Z,27.23
2023-02-16T01:36:24.559Z,28.48
2023-02-16T01:38:51.335Z,50.35
2023-02-16T01:41:32.775Z,42.33
2023-02-16T01:44:15.525Z,31.73
2023-02-16T01:46:49.878Z,29.00
2023-02-16T01:49:18.353Z,28.35
2023-02-16T01:52:00.128Z,26.08
2023-02-16T01:54:56.181Z,31.37
2023-02-16T01:57:41.479Z,25.20
2023-02-16T02:00:12.389Z,24.23
2023-02-16T02:02:47.909Z,23.33
2023-02-16T02:05:36.850Z,24.48
2023-02-16T02:08:15.961Z,26.30
2023-02-16T02:11:07.142Z,23.45
2023-02-16T02:14:00.638Z,20.67
2023-02-16T02:16:28.987Z,27.55
2023-02-16T02:18:55.993Z,36.47
2023-02-16T02:22:05.070Z,23.73
2023-02-16T02:25:06.671Z,40.63
2023-02-16T02:27:39.539Z,29.70
2023-02-16T02:30:15.021Z,26.50
2023-02-16T02:33:02.642Z,42.88
2023-02-16T02:35:51.212Z,27.77
2023-02-16T02:38:26.797Z,26.92
2023-02-16T02:41:12.505Z,26.27
2023-02-16T02:43:43.136Z,23.85
2023-02-16T02:46:25.465Z,29.45
2023-02-16T02:48:52.990Z,28.77
2023-02-16T02:51:30.336Z,30.88
2023-02-16T02:54:38.950Z,28.20
2023-02-16T02:57:40.446Z,29.88
2023-02-16T03:00:32.305Z,27.88
2023-02-16T03:03:10.902Z,24.70
2023-02-16T03:05:41.367Z,27.52
2023-02-16T03:08:15.381Z,37.25
2023-02-16T03:11:05.439Z,33.65
2023-02-16T03:13:57.496Z,42.25
2023-02-16T03:16:31.911Z,34.33
2023-02-16T03:19:18.140Z,35.75
2023-02-16T03:22:03.529Z,37.20
2023-02-16T03:24:50.903Z,36.83
2023-02-16T03:27:44.522Z,43.65
2023-02-16T03:30:15.802Z,38.47
2023-02-16T03:32:44.761Z,37.25
2023-02-16T03:35:12.743Z,43.65
2023-02-16T03:37:44.329Z,41.83
2023-02-16T03:40:29.331Z,30.48
2023-02-16T03:42:58.556Z,37.17
2023-02-16T03:45:25.990Z,35.67
2023-02-16T03:47:53.190Z,34.85
2023-02-16T03:50:19.819Z,36.67
2023-02-16T03:52:46.449Z,36.38
2023-02-16T03:55:13.824Z,47.97
2023-02-16T03:57:40.473Z,32.40
2023-02-16T04:00:07.839Z,32.65
2023-02-16T04:05:41.918Z,55.30
2023-02-16T04:08:10.138Z,61.60
2023-02-16T04:10:38.454Z,48.67
2023-02-16T04:13:05.467Z,36.30
2023-02-16T04:15:32.470Z,53.78
2023-02-16T04:17:59.180Z,42.13
2023-02-16T04:20:29.134Z,42.33
2023-02-16T04:22:58.618Z,39.90
2023-02-16T04:25:25.740Z,44.10
2023-02-16T04:27:53.287Z,42.60
2023-02-16T04:30:26.056Z,32.38
2023-02-16T04:32:53.009Z,64.57
2023-02-16T04:35:20.250Z,50.10
2023-02-16T04:37:47.045Z,58.83
2023-02-16T04:40:15.133Z,86.60
2023-02-16T04:42:42.569Z,68.68
2023-02-16T04:45:09.924Z,44.20
2023-02-16T04:47:36.651Z,43.25
2023-02-16T04:50:03.879Z,36.15
2023-02-16T04:52:30.717Z,41.83
2023-02-16T04:54:57.293Z,35.40
2023-02-16T04:57:25.104Z,44.43
2023-02-16T04:59:51.691Z,29.10
2023-02-16T05:02:18.345Z,27.27
2023-02-16T05:04:45.052Z,33.13
2023-02-16T05:07:11.810Z,30.80
2023-02-16T05:09:38.476Z,31.23
2023-02-16T05:12:23.990Z,30.67
2023-02-16T05:14:53.029Z,29.90
2023-02-16T05:17:22.567Z,31.40
2023-02-16T05:20:00.773Z,27.75
2023-02-16T05:22:34.511Z,38.50
2023-02-16T05:25:02.034Z,49.13
2023-02-16T05:27:30.824Z,43.53
2023-02-16T05:29:58.214Z,41.33
2023-02-16T05:32:25.877Z,37.55
2023-02-16T05:34:52.561Z,42.53
2023-02-16T05:37:19.707Z,36.70
2023-02-16T05:39:46.894Z,50.35
2023-02-16T05:42:13.799Z,44.10
2023-02-16T05:44:40.517Z,38.60
2023-02-16T05:47:07.653Z,35.20
2023-02-16T05:49:34.594Z,36.30
2023-02-16T05:52:02.239Z,46.97
2023-02-16T05:54:28.964Z,43.28
2023-02-16T05:56:55.756Z,39.92
2023-02-16T05:59:22.735Z,39.93
2023-02-16T06:01:51.937Z,38.42
2023-02-16T06:04:20.628Z,41.95
2023-02-16T06:06:47.866Z,41.65
2023-02-16T06:09:15.089Z,40.20
2023-02-16T06:11:42.081Z,53.40
2023-02-16T06:14:11.678Z,42.95
2023-02-16T06:16:41.396Z,46.45
2023-02-16T06:19:08.577Z,41.22
2023-02-16T06:21:36.434Z,46.80
2023-02-16T06:24:09.812Z,42.37
2023-02-16T06:26:37.874Z,41.72
2023-02-16T06:29:08.861Z,46.28
2023-02-16T06:31:36.720Z,37.17
2023-02-16T06:34:04.507Z,43.42
2023-02-16T06:36:31.435Z,47.87
2023-02-16T06:38:58.142Z,46.53
2023-02-16T06:41:40.214Z,42.83
2023-02-16T06:44:13.494Z,48.85
2023-02-16T06:46:45.904Z,44.47
2023-02-16T06:49:18.263Z,50.40
2023-02-16T06:51:45.808Z,46.30
2023-02-16T06:54:13.124Z,61.17
2023-02-16T06:56:40.370Z,47.50
2023-02-16T06:59:06.952Z,48.65
2023-02-16T07:01:33.731Z,39.60
2023-02-16T07:04:00.279Z,44.10
2023-02-16T07:06:28.687Z,42.33
2023-02-16T07:08:56.059Z,47.40
2023-02-16T07:11:22.925Z,43.70
2023-02-16T07:13:50.061Z,40.93
2023-02-16T07:16:17.009Z,46.75
2023-02-16T07:18:43.814Z,53.33
2023-02-16T07:21:10.568Z,52.22
2023-02-16T07:23:37.248Z,54.15
2023-02-16T07:26:04.046Z,38.17
2023-02-16T07:28:30.708Z,41.25
2023-02-16T07:30:57.533Z,40.42
2023-02-16T07:33:24.101Z,34.13
2023-02-16T07:35:50.735Z,51.35
2023-02-16T07:38:17.358Z,45.90
2023-02-16T07:40:43.956Z,37.38
2023-02-16T07:43:10.583Z,42.35
2023-02-16T07:45:37.214Z,42.08
2023-02-16T07:48:04.091Z,41.97
2023-02-16T07:50:30.767Z,54.00
2023-02-16T07:52:57.382Z,41.35
2023-02-16T07:55:24.011Z,37.97
2023-02-16T07:57:54.687Z,43.50
2023-02-16T08:00:22.251Z,42.13
2023-02-16T08:02:49.269Z,54.53
2023-02-16T08:05:16.003Z,49.80
2023-02-16T08:07:42.566Z,42.45
2023-02-16T08:10:09.534Z,48.72
2023-02-16T08:12:37.043Z,52.05
2023-02-16T08:15:04.450Z,49.90
2023-02-16T08:17:31.040Z,49.88
2023-02-16T08:19:57.668Z,42.50
2023-02-16T08:22:24.261Z,45.50
2023-02-16T08:24:51.339Z,43.05
2023-02-16T08:27:17.935Z,40.27
2023-02-16T08:29:44.604Z,38.80
2023-02-16T08:32:14.728Z,51.75
2023-02-16T08:34:43.296Z,42.72
2023-02-16T08:37:12.311Z,55.22
2023-02-16T08:39:39.474Z,39.17
2023-02-16T08:42:06.187Z,36.65
2023-02-16T08:44:33.105Z,38.03
2023-02-16T08:47:00.881Z,41.03
2023-02-16T08:49:27.883Z,50.40
2023-02-16T08:51:57.978Z,42.30
2023-02-16T08:54:28.078Z,42.22
2023-02-16T08:56:55.725Z,43.55
2023-02-16T08:59:25.541Z,41.25
2023-02-16T09:01:53.898Z,43.47
2023-02-16T09:04:20.498Z,39.87
2023-02-16T09:06:50.886Z,41.45
2023-02-16T09:09:18.022Z,40.83
2023-02-16T09:11:44.596Z,45.10
2023-02-16T09:14:11.293Z,44.05
2023-02-16T09:16:39.835Z,38.00
2023-02-16T09:19:06.960Z,42.88
2023-02-16T09:21:33.647Z,41.78
2023-02-16T09:24:04.485Z,44.50
2023-02-16T09:26:33.609Z,43.17
2023-02-16T09:29:02.191Z,44.10
2023-02-16T09:31:31.479Z,36.70
2023-02-16T09:34:00.335Z,37.35
2023-02-16T09:36:27.285Z,36.80
2023-02-16T09:38:56.161Z,38.85
2023-02-16T09:41:40.596Z,35.70
2023-02-16T09:44:22.720Z,30.52
2023-02-16T09:46:50.509Z,41.10
2023-02-16T09:49:40.941Z,35.60
2023-02-16T09:52:36.383Z,37.28
2023-02-16T09:55:18.178Z,28.40
2023-02-16T09:57:55.462Z,36.08
2023-02-16T10:00:34.375Z,37.13
2023-02-16T10:03:13.740Z,31.90
2023-02-16T10:05:52.512Z,32.45
2023-02-16T10:08:34.324Z,33.93
2023-02-16T10:11:33.499Z,36.95
2023-02-16T10:14:07.946Z,37.45
2023-02-16T10:16:42.729Z,37.08
2023-02-16T10:19:23.528Z,36.08
2023-02-16T10:21:55.125Z,32.63
2023-02-16T10:24:22.047Z,33.10
2023-02-16T10:27:02.702Z,33.25
2023-02-16T10:29:29.528Z,33.40
2023-02-16T10:32:30.606Z,32.45
2023-02-16T10:35:12.007Z,31.93
2023-02-16T10:38:07.650Z,36.28
2023-02-16T10:40:44.845Z,37.75
2023-02-16T10:43:46.565Z,35.67
2023-02-16T10:46:26.563Z,33.75
2023-02-16T10:48:54.915Z,41.47
2023-02-16T10:51:28.022Z,35.88
2023-02-16T10:54:05.429Z,35.67
2023-02-16T10:56:49.609Z,33.22
2023-02-16T10:59:39.025Z,33.00
2023-02-16T11:02:35.192Z,32.70
2023-02-16T11:05:03.904Z,34.38
2023-02-16T11:07:31.414Z,35.17
2023-02-16T11:10:02.752Z,32.50
2023-02-16T11:12:38.872Z,29.83
2023-02-16T11:15:16.590Z,39.27
2023-02-16T11:17:57.799Z,35.88
2023-02-16T11:20:30.148Z,31.83
2023-02-16T11:23:27.686Z,32.35
2023-02-16T11:26:06.729Z,40.38
2023-02-16T11:28:44.758Z,31.57
2023-02-16T11:31:13.820Z,39.22
2023-02-16T11:33:42.057Z,34.80
2023-02-16T11:36:32.493Z,29.73
2023-02-16T11:39:08.870Z,36.70
2023-02-16T11:41:37.527Z,29.87
2023-02-16T11:44:04.493Z,29.73
2023-02-16T11:46:40.345Z,31.75
2023-02-16T11:49:29.070Z,29.40
2023-02-16T11:51:55.932Z,32.20
2023-02-16T11:54:23.072Z,32.70
2023-02-16T11:57:09.392Z,31.83
2023-02-16T11:59:39.091Z,35.50
2023-02-16T12:02:20.452Z,35.03
2023-02-16T12:05:08.991Z,31.73
2023-02-16T12:07:58.022Z,27.60
2023-02-16T12:10:36.236Z,32.22
2023-02-16T12:13:31.951Z,29.13
2023-02-16T12:16:37.159Z,25.67
2023-02-16T12:19:19.124Z,25.50
2023-02-16T12:22:17.170Z,32.70
2023-02-16T12:24:59.035Z,28.13
2023-02-16T12:27:33.664Z,28.50
2023-02-16T12:30:19.962Z,27.60
2023-02-16T12:33:01.800Z,28.35
2023-02-16T12:36:00.873Z,31.37
2023-02-16T12:38:45.557Z,30.40
2023-02-16T12:41:30.370Z,28.52
2023-02-16T12:44:02.967Z,32.03
2023-02-16T12:46:54.550Z,32.42
2023-02-16T12:49:27.483Z,26.23
2023-02-16T12:52:07.024Z,25.85
2023-02-16T12:54:41.159Z,25.15
2023-02-16T12:57:15.004Z,30.00
2023-02-16T12:59:48.718Z,30.17
2023-02-16T13:02:26.848Z,25.97
2023-02-16T13:05:29.864Z,23.73
2023-02-16T13:08:02.895Z,24.75
2023-02-16T13:10:51.823Z,25.85
2023-02-16T13:13:26.611Z,27.58
2023-02-16T13:16:24.113Z,29.47
2023-02-16T13:18:57.071Z,23.30
2023-02-16T13:21:51.531Z,24.67
2023-02-16T13:24:30.499Z,33.58
2023-02-16T13:27:18.601Z,25.10
2023-02-16T13:30:22.988Z,32.57
2023-02-16T13:33:18.912Z,24.35
2023-02-16T13:36:10.626Z,25.38
2023-02-16T13:39:20.727Z,23.65
2023-02-16T13:42:01.466Z,30.80
2023-02-16T13:44:56.321Z,26.60
2023-02-16T13:47:30.726Z,29.02
2023-02-16T13:50:00.345Z,31.70
2023-02-16T13:52:34.734Z,26.77
2023-02-16T13:55:04.902Z,30.30
2023-02-16T13:57:50.652Z,30.40
2023-02-16T14:00:32.735Z,25.38
2023-02-16T14:03:22.603Z,33.15
2023-02-16T14:05:54.083Z,28.20
2023-02-16T14:08:28.757Z,33.22
2023-02-16T14:10:59.542Z,38.77
2023-02-16T14:13:36.505Z,29.90
2023-02-16T14:16:10.548Z,39.58
2023-02-16T14:18:43.029Z,36.05
2023-02-16T14:21:28.381Z,36.58
2023-02-16T14:23:57.255Z,42.50
2023-02-16T14:26:24.720Z,36.67
2023-02-16T14:29:10.129Z,30.63
2023-02-16T14:31:47.233Z,34.45
2023-02-16T14:34:28.512Z,31.15
2023-02-16T14:37:17.082Z,32.93
2023-02-16T14:40:06.538Z,26.88
2023-02-16T14:42:34.901Z,26.83
2023-02-16T14:45:18.825Z,29.25
2023-02-16T14:48:02.813Z,28.75
2023-02-16T14:50:44.573Z,21.80
2023-02-16T14:53:39.318Z,24.23
2023-02-16T14:56:28.449Z,25.90
2023-02-16T14:59:01.916Z,28.38
2023-02-16T15:01:29.005Z,31.05
2023-02-16T15:03:58.021Z,22.00
2023-02-16T15:06:34.312Z,25.02
2023-02-16T15:09:06.439Z,24.42
2023-02-16T15:11:56.238Z,26.33
2023-02-16T15:14:25.685Z,26.23
2023-02-16T15:16:53.948Z,26.93
2023-02-16T15:19:27.708Z,30.63
2023-02-16T15:22:23.432Z,23.92
2023-02-16T15:24:56.178Z,27.25
2023-02-16T15:27:23.457Z,31.90
2023-02-16T15:30:21.507Z,51.47
2023-02-16T15:33:04.682Z,45.20
2023-02-16T15:35:39.141Z,47.85
2023-02-16T15:38:11.913Z,31.13
2023-02-16T15:40:39.808Z,43.30
2023-02-16T15:43:19.648Z,31.70
2023-02-16T15:45:54.772Z,34.83
2023-02-16T15:48:37.659Z,29.67
2023-02-16T15:51:16.352Z,30.92
2023-02-16T15:53:52.964Z,37.53
2023-02-16T15:56:43.359Z,35.93
2023-02-16T15:59:43.943Z,30.27
2023-02-16T16:02:26.402Z,27.33
2023-02-16T16:04:59.234Z,32.13
2023-02-16T16:07:35.725Z,30.63
2023-02-16T16:10:11.588Z,27.83
2023-02-16T16:12:38.459Z,28.17
2023-02-16T16:15:17.483Z,31.77
2023-02-16T16:17:44.305Z,35.60
2023-02-16T16:20:38.020Z,45.60
2023-02-16T16:23:23.559Z,38.93
2023-02-16T16:25:51.088Z,44.60
2023-02-16T16:28:29.799Z,31.98
2023-02-16T16:31:07.840Z,29.15
2023-02-16T16:33:59.443Z,27.88
2023-02-16T16:36:35.214Z,33.07
2023-02-16T16:39:21.067Z,37.47
2023-02-16T16:42:09.040Z,33.85
2023-02-16T16:44:42.020Z,33.38
2023-02-16T16:47:26.640Z,24.38
2023-02-16T16:50:04.004Z,28.87
2023-02-16T16:52:45.906Z,26.67
2023-02-16T16:55:23.041Z,23.50
2023-02-16T16:57:52.511Z,28.60
2023-02-16T17:00:21.220Z,23.92
2023-02-16T17:02:48.654Z,24.27
2023-02-16T17:05:15.582Z,27.63
2023-02-16T17:07:42.200Z,24.48
2023-02-16T17:10:09.273Z,20.85
2023-02-16T17:12:36.275Z,23.52
2023-02-16T17:15:03.167Z,29.30
2023-02-16T17:17:31.440Z,27.38
2023-02-16T17:19:58.305Z,25.92
2023-02-16T17:22:24.997Z,29.33
2023-02-16T17:24:51.675Z,32.22
2023-02-16T17:27:19.733Z,21.77
2023-02-16T17:29:46.660Z,26.35
2023-02-16T17:32:13.541Z,20.95
2023-02-16T17:34:40.244Z,24.75
2023-02-16T17:37:10.034Z,21.05
2023-02-16T17:39:36.729Z,18.90
2023-02-16T17:42:03.656Z,23.77
2023-02-16T17:44:30.430Z,17.92
2023-02-16T17:46:57.288Z,19.35
2023-02-16T17:49:24.223Z,19.67
2023-02-16T17:51:50.879Z,18.30
2023-02-16T17:54:17.626Z,18.60
2023-02-16T17:56:45.356Z,16.35
2023-02-16T17:59:15.973Z,17.52
2023-02-16T18:01:43.696Z,15.95
2023-02-16T18:04:10.468Z,15.80
2023-02-16T18:06:37.198Z,17.52
2023-02-16T18:09:04.410Z,15.73
2023-02-16T18:11:31.276Z,17.58
2023-02-16T18:13:58.103Z,17.95
2023-02-16T18:16:27.423Z,16.13
2023-02-16T18:18:54.797Z,17.67
2023-02-16T18:21:21.401Z,17.58
2023-02-16T18:23:48.071Z,21.98
2023-02-16T18:26:16.511Z,20.75
2023-02-16T18:28:43.409Z,24.10
2023-02-16T18:31:10.490Z,42.05
2023-02-16T18:33:37.465Z,23.73
2023-02-16T18:36:08.811Z,21.75
2023-02-16T18:38:35.605Z,28.55
2023-02-16T18:41:02.434Z,22.70
2023-02-16T18:43:29.164Z,28.50
2023-02-16T18:45:55.745Z,21.92
2023-02-16T18:48:22.447Z,18.15
2023-02-16T18:50:52.193Z,15.25
2023-02-16T18:53:18.890Z,18.60
2023-02-16T18:55:45.573Z,18.98
2023-02-16T18:58:14.131Z,18.55
2023-02-16T19:00:41.574Z,19.63
2023-02-16T19:03:08.775Z,16.55
2023-02-16T19:05:38.252Z,14.03
2023-02-16T19:08:05.278Z,11.20
2023-02-16T19:10:32.619Z,11.55
2023-02-16T19:13:01.288Z,9.80
2023-02-16T19:15:29.158Z,9.45
2023-02-16T19:17:55.818Z,8.77
2023-02-16T19:20:22.564Z,9.43
2023-02-16T19:22:49.411Z,8.05
2023-02-16T19:25:17.609Z,11.50
2023-02-16T19:27:47.394Z,12.50
2023-02-16T19:30:14.442Z,12.40
2023-02-16T19:32:41.535Z,10.15
2023-02-16T19:35:09.384Z,11.23
2023-02-16T19:37:36.378Z,12.38
2023-02-16T19:40:05.166Z,11.88
2023-02-16T19:42:31.824Z,12.43
2023-02-16T19:44:59.299Z,14.50
2023-02-16T19:47:26.159Z,14.55
2023-02-16T19:49:52.849Z,15.30
2023-02-16T19:52:19.411Z,20.52
2023-02-16T19:54:46.136Z,16.93
2023-02-16T19:57:12.737Z,9.38
2023-02-16T19:59:39.437Z,10.77
2023-02-16T20:02:06.296Z,13.35
2023-02-16T20:04:32.942Z,6.68
2023-02-16T20:06:59.676Z,9.33
2023-02-16T20:09:26.669Z,10.77
2023-02-16T20:11:53.543Z,9.60
2023-02-16T20:14:20.609Z,9.38
2023-02-16T20:16:49.461Z,9.18
2023-02-16T20:19:19.372Z,8.83
2023-02-16T20:21:46.393Z,8.88
2023-02-16T20:24:13.987Z,9.18
2023-02-16T20:26:43.639Z,9.57
2023-02-16T20:29:12.273Z,10.48
2023-02-16T20:31:42.291Z,10.57
2023-02-16T20:34:10.223Z,11.00
2023-02-16T20:36:37.870Z,12.68
2023-02-16T20:39:06.860Z,13.00
2023-02-16T20:41:33.433Z,10.38
2023-02-16T20:44:02.902Z,10.43
2023-02-16T20:46:32.894Z,13.63
2023-02-16T20:48:59.541Z,16.85
2023-02-16T20:51:26.469Z,13.02
2023-02-16T20:53:53.064Z,12.93
2023-02-16T20:56:22.345Z,11.13
2023-02-16T20:58:53.187Z,9.82
2023-02-16T21:01:29.718Z,9.63
2023-02-16T21:03:58.133Z,11.40
2023-02-16T21:06:25.812Z,12.75
2023-02-16T21:08:52.543Z,13.30
2023-02-16T21:11:19.758Z,13.38
2023-02-16T21:13:46.971Z,7.05
2023-02-16T21:16:14.786Z,7.53
2023-02-16T21:18:41.532Z,10.10
2023-02-16T21:21:09.607Z,10.63
2023-02-16T21:23:36.496Z,8.13
2023-02-16T21:26:06.199Z,13.15
2023-02-16T21:28:33.559Z,16.05
2023-02-16T21:31:05.913Z,18.77
2023-02-16T21:33:33.053Z,13.43
2023-02-16T21:36:08.231Z,17.73
2023-02-16T21:38:36.120Z,21.13
2023-02-16T21:41:26.591Z,19.27
2023-02-16T21:44:05.004Z,24.55
2023-02-16T21:46:40.234Z,18.27
2023-02-16T21:49:09.865Z,21.17
2023-02-16T21:51:38.987Z,29.30
2023-02-16T21:54:07.213Z,9.25
2023-02-16T21:56:44.998Z,10.00
2023-02-16T21:59:15.525Z,6.93
2023-02-16T22:01:53.217Z,7.35
2023-02-16T22:04:22.139Z,7.60
2023-02-16T22:06:50.237Z,14.38
2023-02-16T22:09:22.447Z,13.88
2023-02-16T22:11:50.058Z,11.73
2023-02-16T22:14:16.767Z,9.70
2023-02-16T22:16:46.164Z,10.90
2023-02-16T22:19:15.352Z,8.43
2023-02-16T22:21:44.148Z,9.25
2023-02-16T22:24:15.416Z,6.97
2023-02-16T22:26:43.082Z,10.18
2023-02-16T22:29:10.654Z,10.90
2023-02-16T22:31:37.481Z,12.32
2023-02-16T22:34:06.694Z,14.85
2023-02-16T22:36:34.347Z,17.27
2023-02-16T22:39:00.984Z,13.90
2023-02-16T22:41:27.594Z,13.02
2023-02-16T22:43:55.777Z,11.80
2023-02-16T22:46:24.201Z,16.40
2023-02-16T22:48:52.028Z,14.80
2023-02-16T22:51:20.134Z,22.63
2023-02-16T22:53:47.319Z,20.85
2023-02-16T22:56:16.307Z,22.83
2023-02-16T22:58:43.665Z,18.92
2023-02-16T23:01:12.871Z,14.70
2023-02-16T23:03:39.811Z,12.38
2023-02-16T23:06:34.063Z,10.65
2023-02-16T23:09:04.214Z,12.00
2023-02-16T23:11:31.644Z,8.95
2023-02-16T23:13:58.441Z,9.90
2023-02-16T23:16:26.775Z,10.18
2023-02-16T23:18:56.437Z,8.75
2023-02-16T23:21:27.030Z,8.48
2023-02-16T23:23:54.354Z,7.53
2023-02-16T23:26:23.087Z,7.53
2023-02-16T23:28:51.707Z,8.75
2023-02-16T23:31:19.492Z,8.27
2023-02-16T23:33:46.327Z,10.85
2023-02-16T23:36:13.131Z,10.52
2023-02-16T23:38:39.908Z,9.33
2023-02-16T23:41:10.611Z,7.95
2023-02-16T23:43:37.995Z,8.98
2023-02-16T23:46:05.981Z,8.02
2023-02-16T23:48:32.834Z,7.68
2023-02-16T23:50:59.788Z,9.87
2023-02-16T23:53:27.724Z,11.35
2023-02-16T23:56:25.368Z,12.63
2023-02-16T23:58:55.876Z,7.55
